Terminal Aerodrome Forecast
Issued by NWS Kansas City/Pleasant Hill, MO

Home | Current Version | Previous Version | Text Only | Print | Product List | Glossary On
Versions: 1 2 3 4 5 6 7 8 9 10 11 12 13 14 15 16 17 18 19 20 21 22 23 24 25 26
000
FTUS43 KEAX 270520
TAFMCI
TAF
KMCI 270520Z 2706/2806 03015KT 5SM -RA BR OVC005
      TEMPO 2707/2709 27015G30KT 3SM TSRA BKN015CB
     FM270900 13010KT 5SM -RA VCTS OVC015CB
     FM271200 17010KT P6SM OVC015
     FM271800 17012KT P6SM VCTS BKN045CB=

USA.gov is the U.S. government's official web portal to all federal, state and local government web resources and services.